sensor_id;sensor_type;location;lat;lon;timestamp;pressure;altitude;pressure_sealevel;temperature;humidity
59513;BME280;45330;51.634;5.562;2023-02-04T00:00:44;103149.66;;;6.32;100.00
59513;BME280;45330;51.634;5.562;2023-02-04T00:03:10;103147.78;;;6.29;100.00
59513;BME280;45330;51.634;5.562;2023-02-04T00:05:36;103177.66;;;6.41;100.00
59513;BME280;45330;51.634;5.562;2023-02-04T00:08:01;103165.38;;;6.37;100.00
59513;BME280;45330;51.634;5.562;2023-02-04T00:10:27;103171.34;;;6.35;100.00
59513;BME280;45330;51.634;5.562;2023-02-04T00:12:52;103171.22;;;6.32;100.00
59513;BME280;45330;51.634;5.562;2023-02-04T00:15:18;103178.97;;;6.32;100.00
59513;BME280;45330;51.634;5.562;2023-02-04T00:17:43;103178.81;;;6.29;100.00
59513;BME280;45330;51.634;5.562;2023-02-04T00:20:09;103164.25;;;6.13;100.00
59513;BME280;45330;51.634;5.562;2023-02-04T00:22:34;103165.78;;;6.10;100.00
59513;BME280;45330;51.634;5.562;2023-02-04T00:24:59;103190.34;;;6.18;100.00
59513;BME280;45330;51.634;5.562;2023-02-04T00:27:25;103190.19;;;6.15;100.00
59513;BME280;45330;51.634;5.562;2023-02-04T00:29:50;103195.28;;;6.13;100.00
59513;BME280;45330;51.634;5.562;2023-02-04T00:32:15;103194.16;;;6.08;100.00
59513;BME280;45330;51.634;5.562;2023-02-04T00:34:41;103177.91;;;5.94;100.00
59513;BME280;45330;51.634;5.562;2023-02-04T00:37:06;103182.53;;;6.00;100.00
59513;BME280;45330;51.634;5.562;2023-02-04T00:39:32;103176.31;;;5.96;100.00
59513;BME280;45330;51.634;5.562;2023-02-04T00:41:57;103185.06;;;5.98;100.00
59513;BME280;45330;51.634;5.562;2023-02-04T00:44:22;103194.88;;;6.06;100.00
59513;BME280;45330;51.634;5.562;2023-02-04T00:46:48;103193.03;;;6.03;100.00
59513;BME280;45330;51.634;5.562;2023-02-04T00:49:13;103181.06;;;5.89;100.00
59513;BME280;45330;51.634;5.562;2023-02-04T00:51:39;103196.25;;;5.99;100.00
59513;BME280;45330;51.634;5.562;2023-02-04T00:54:06;103159.53;;;5.72;100.00
59513;BME280;45330;51.634;5.562;2023-02-04T00:56:32;103177.78;;;5.75;100.00
59513;BME280;45330;51.634;5.562;2023-02-04T00:58:58;103198.88;;;5.82;100.00
59513;BME280;45330;51.634;5.562;2023-02-04T01:01:23;103183.22;;;5.63;100.00
59513;BME280;45330;51.634;5.562;2023-02-04T01:03:48;103206.78;;;5.69;100.00
59513;BME280;45330;51.634;5.562;2023-02-04T01:06:14;103208.78;;;5.58;100.00
59513;BME280;45330;51.634;5.562;2023-02-04T01:08:39;103198.47;;;5.42;100.00
59513;BME280;45330;51.634;5.562;2023-02-04T01:11:04;103213.88;;;5.40;100.00
59513;BME280;45330;51.634;5.562;2023-02-04T01:13:30;103203.53;;;5.24;100.00
59513;BME280;45330;51.634;5.562;2023-02-04T01:15:55;103207.22;;;5.12;100.00
59513;BME280;45330;51.634;5.562;2023-02-04T01:18:20;103235.06;;;5.18;100.00
59513;BME280;45330;51.634;5.562;2023-02-04T01:20:46;103239.91;;;5.12;100.00
59513;BME280;45330;51.634;5.562;2023-02-04T01:23:11;103240.16;;;5.02;100.00
59513;BME280;45330;51.634;5.562;2023-02-04T01:25:36;103238.13;;;4.96;100.00
59513;BME280;45330;51.634;5.562;2023-02-04T01:28:02;103249.16;;;4.93;100.00
59513;BME280;45330;51.634;5.562;2023-02-04T01:30:27;103247.22;;;4.89;100.00
59513;BME280;45330;51.634;5.562;2023-02-04T01:32:53;103244.31;;;4.83;100.00
59513;BME280;45330;51.634;5.562;2023-02-04T01:35:18;103243.97;;;4.77;100.00
59513;BME280;45330;51.634;5.562;2023-02-04T01:37:43;103219.81;;;4.60;100.00
59513;BME280;45330;51.634;5.562;2023-02-04T01:40:10;103249.56;;;4.70;100.00
59513;BME280;45330;51.634;5.562;2023-02-04T01:42:35;103228.97;;;4.55;100.00
59513;BME280;45330;51.634;5.562;2023-02-04T01:45:02;103249.84;;;4.59;100.00
59513;BME280;45330;51.634;5.562;2023-02-04T01:47:30;103250.56;;;4.57;100.00
59513;BME280;45330;51.634;5.562;2023-02-04T01:49:56;103252.88;;;4.52;100.00
59513;BME280;45330;51.634;5.562;2023-02-04T01:52:22;103259.44;;;4.47;100.00
59513;BME280;45330;51.634;5.562;2023-02-04T01:54:48;103260.97;;;4.43;100.00
59513;BME280;45330;51.634;5.562;2023-02-04T01:57:15;103264.25;;;4.41;100.00
59513;BME280;45330;51.634;5.562;2023-02-04T01:59:45;103252.09;;;4.23;100.00
59513;BME280;45330;51.634;5.562;2023-02-04T02:02:36;103270.72;;;4.34;100.00
59513;BME280;45330;51.634;5.562;2023-02-04T02:05:04;103246.00;;;4.23;100.00
59513;BME280;45330;51.634;5.562;2023-02-04T02:07:29;103271.44;;;4.32;100.00
59513;BME280;45330;51.634;5.562;2023-02-04T02:09:54;103249.22;;;4.19;100.00
59513;BME280;45330;51.634;5.562;2023-02-04T02:12:20;103257.94;;;4.21;100.00
59513;BME280;45330;51.634;5.562;2023-02-04T02:14:45;103264.31;;;4.27;100.00
59513;BME280;45330;51.634;5.562;2023-02-04T02:17:11;103281.34;;;4.39;100.00
59513;BME280;45330;51.634;5.562;2023-02-04T02:19:37;103263.09;;;4.36;100.00
59513;BME280;45330;51.634;5.562;2023-02-04T02:22:54;103265.34;;;4.44;100.00
59513;BME280;45330;51.634;5.562;2023-02-04T02:24:51;103275.38;;;4.55;100.00
59513;BME280;45330;51.634;5.562;2023-02-04T02:27:16;103269.69;;;4.60;100.00
59513;BME280;45330;51.634;5.562;2023-02-04T02:29:42;103283.38;;;4.74;100.00
59513;BME280;45330;51.634;5.562;2023-02-04T02:32:09;103276.44;;;4.73;100.00
59513;BME280;45330;51.634;5.562;2023-02-04T02:34:35;103292.91;;;4.75;100.00
59513;BME280;45330;51.634;5.562;2023-02-04T02:37:03;103281.16;;;4.66;100.00
59513;BME280;45330;51.634;5.562;2023-02-04T02:39:29;103293.78;;;4.76;100.00
59513;BME280;45330;51.634;5.562;2023-02-04T02:41:56;103275.47;;;4.71;100.00
59513;BME280;45330;51.634;5.562;2023-02-04T02:44:22;103275.56;;;4.73;100.00
59513;BME280;45330;51.634;5.562;2023-02-04T02:46:48;103295.44;;;4.90;100.00
59513;BME280;45330;51.634;5.562;2023-02-04T02:49:17;103292.25;;;4.94;100.00
59513;BME280;45330;51.634;5.562;2023-02-04T02:51:44;103292.31;;;4.96;100.00
59513;BME280;45330;51.634;5.562;2023-02-04T02:54:20;103278.81;;;4.85;100.00
59513;BME280;45330;51.634;5.562;2023-02-04T02:56:46;103295.81;;;4.96;100.00
59513;BME280;45330;51.634;5.562;2023-02-04T02:59:15;103292.31;;;4.96;100.00
59513;BME280;45330;51.634;5.562;2023-02-04T03:01:41;103291.34;;;4.94;100.00
59513;BME280;45330;51.634;5.562;2023-02-04T03:04:08;103301.69;;;4.94;100.00
59513;BME280;45330;51.634;5.562;2023-02-04T03:06:35;103264.31;;;4.72;100.00
59513;BME280;45330;51.634;5.562;2023-02-04T03:09:00;103284.41;;;4.78;100.00
59513;BME280;45330;51.634;5.562;2023-02-04T03:11:26;103291.81;;;4.72;100.00
59513;BME280;45330;51.634;5.562;2023-02-04T03:13:54;103292.69;;;4.72;100.00
59513;BME280;45330;51.634;5.562;2023-02-04T03:16:20;103283.38;;;4.59;100.00
59513;BME280;45330;51.634;5.562;2023-02-04T03:18:46;103304.16;;;4.62;100.00
59513;BME280;45330;51.634;5.562;2023-02-04T03:21:11;103292.34;;;4.51;100.00
59513;BME280;45330;51.634;5.562;2023-02-04T03:23:37;103298.66;;;4.41;100.00
59513;BME280;45330;51.634;5.562;2023-02-04T03:26:03;103326.78;;;4.52;100.00
59513;BME280;45330;51.634;5.562;2023-02-04T03:28:30;103300.25;;;4.39;100.00
59513;BME280;45330;51.634;5.562;2023-02-04T03:30:56;103322.16;;;4.46;100.00
59513;BME280;45330;51.634;5.562;2023-02-04T03:33:23;103314.19;;;4.43;100.00
59513;BME280;45330;51.634;5.562;2023-02-04T03:35:49;103317.78;;;4.45;100.00
59513;BME280;45330;51.634;5.562;2023-02-04T03:38:15;103299.16;;;4.36;100.00
59513;BME280;45330;51.634;5.562;2023-02-04T03:40:41;103322.41;;;4.51;100.00
59513;BME280;45330;51.634;5.562;2023-02-04T03:43:06;103297.06;;;4.43;100.00
59513;BME280;45330;51.634;5.562;2023-02-04T03:45:31;103326.75;;;4.67;100.00
59513;BME280;45330;51.634;5.562;2023-02-04T03:47:57;103321.06;;;4.72;100.00
59513;BME280;45330;51.634;5.562;2023-02-04T03:50:22;103319.41;;;4.73;100.00
59513;BME280;45330;51.634;5.562;2023-02-04T03:52:47;103324.09;;;4.80;100.00
59513;BME280;45330;51.634;5.562;2023-02-04T03:55:14;103312.78;;;4.78;100.00
59513;BME280;45330;51.634;5.562;2023-02-04T03:57:39;103321.63;;;4.81;100.00
59513;BME280;45330;51.634;5.562;2023-02-04T04:00:05;103297.59;;;4.68;100.00
59513;BME280;45330;51.634;5.562;2023-02-04T04:02:31;103298.94;;;4.61;100.00
59513;BME280;45330;51.634;5.562;2023-02-04T04:04:56;103319.31;;;4.71;100.00
59513;BME280;45330;51.634;5.562;2023-02-04T04:07:21;103317.53;;;4.70;100.00
59513;BME280;45330;51.634;5.562;2023-02-04T04:09:47;103308.53;;;4.63;100.00
59513;BME280;45330;51.634;5.562;2023-02-04T04:12:12;103292.72;;;4.57;100.00
59513;BME280;45330;51.634;5.562;2023-02-04T04:14:37;103298.59;;;4.55;100.00
59513;BME280;45330;51.634;5.562;2023-02-04T04:17:02;103324.09;;;4.65;100.00
59513;BME280;45330;51.634;5.562;2023-02-04T04:19:28;103322.22;;;4.62;100.00
59513;BME280;45330;51.634;5.562;2023-02-04T04:21:55;103311.31;;;4.52;100.00
59513;BME280;45330;51.634;5.562;2023-02-04T04:24:21;103331.84;;;4.65;100.00
59513;BME280;45330;51.634;5.562;2023-02-04T04:26:46;103333.53;;;4.64;100.00
59513;BME280;45330;51.634;5.562;2023-02-04T04:29:12;103325.88;;;4.66;100.00
59513;BME280;45330;51.634;5.562;2023-02-04T04:31:37;103303.47;;;4.50;100.00
59513;BME280;45330;51.634;5.562;2023-02-04T04:34:02;103323.75;;;4.59;100.00
59513;BME280;45330;51.634;5.562;2023-02-04T04:36:28;103317.69;;;4.43;100.00
59513;BME280;45330;51.634;5.562;2023-02-04T04:38:53;103335.13;;;4.47;100.00
59513;BME280;45330;51.634;5.562;2023-02-04T04:41:18;103329.50;;;4.40;100.00
59513;BME280;45330;51.634;5.562;2023-02-04T04:43:44;103340.50;;;4.37;100.00
59513;BME280;45330;51.634;5.562;2023-02-04T04:46:09;103338.28;;;4.28;100.00
59513;BME280;45330;51.634;5.562;2023-02-04T04:48:34;103336.91;;;4.20;100.00
59513;BME280;45330;51.634;5.562;2023-02-04T04:51:00;103333.97;;;4.14;100.00
59513;BME280;45330;51.634;5.562;2023-02-04T04:53:25;103333.97;;;4.14;100.00
59513;BME280;45330;51.634;5.562;2023-02-04T04:55:50;103340.50;;;4.22;100.00
59513;BME280;45330;51.634;5.562;2023-02-04T04:58:16;103345.03;;;4.26;100.00
59513;BME280;45330;51.634;5.562;2023-02-04T05:00:41;103323.25;;;4.21;100.00
59513;BME280;45330;51.634;5.562;2023-02-04T05:03:06;103353.69;;;4.42;100.00
59513;BME280;45330;51.634;5.562;2023-02-04T05:05:32;103348.88;;;4.48;100.00
59513;BME280;45330;51.634;5.562;2023-02-04T05:07:58;103357.88;;;4.55;100.00
59513;BME280;45330;51.634;5.562;2023-02-04T05:10:23;103348.53;;;4.57;100.00
59513;BME280;45330;51.634;5.562;2023-02-04T05:12:49;103349.88;;;4.65;100.00
59513;BME280;45330;51.634;5.562;2023-02-04T05:15:14;103341.88;;;4.60;100.00
59513;BME280;45330;51.634;5.562;2023-02-04T05:17:39;103348.38;;;4.69;100.00
59513;BME280;45330;51.634;5.562;2023-02-04T05:20:05;103363.59;;;4.79;100.00
59513;BME280;45330;51.634;5.562;2023-02-04T05:22:31;103347.94;;;4.76;100.00
59513;BME280;45330;51.634;5.562;2023-02-04T05:24:56;103358.69;;;4.84;100.00
59513;BME280;45330;51.634;5.562;2023-02-04T05:27:21;103349.00;;;4.79;100.00
59513;BME280;45330;51.634;5.562;2023-02-04T05:29:47;103352.56;;;4.81;100.00
59513;BME280;45330;51.634;5.562;2023-02-04T05:32:12;103370.53;;;4.95;100.00
59513;BME280;45330;51.634;5.562;2023-02-04T05:34:37;103373.03;;;4.93;100.00
59513;BME280;45330;51.634;5.562;2023-02-04T05:37:03;103383.53;;;4.96;100.00
59513;BME280;45330;51.634;5.562;2023-02-04T05:39:28;103375.88;;;4.98;100.00
59513;BME280;45330;51.634;5.562;2023-02-04T05:41:53;103355.22;;;4.83;100.00
59513;BME280;45330;51.634;5.562;2023-02-04T05:44:19;103359.59;;;4.84;100.00
59513;BME280;45330;51.634;5.562;2023-02-04T05:46:44;103363.94;;;4.85;100.00
59513;BME280;45330;51.634;5.562;2023-02-04T05:49:09;103386.00;;;4.95;100.00
59513;BME280;45330;51.634;5.562;2023-02-04T05:51:35;103381.59;;;4.92;100.00
59513;BME280;45330;51.634;5.562;2023-02-04T05:54:00;103394.56;;;4.94;100.00
59513;BME280;45330;51.634;5.562;2023-02-04T05:56:26;103397.25;;;4.95;100.00
59513;BME280;45330;51.634;5.562;2023-02-04T05:58:51;103388.69;;;4.96;100.00
59513;BME280;45330;51.634;5.562;2023-02-04T06:01:17;103378.63;;;4.86;100.00
59513;BME280;45330;51.634;5.562;2023-02-04T06:03:42;103399.03;;;4.96;100.00
59513;BME280;45330;51.634;5.562;2023-02-04T06:06:08;103369.84;;;4.83;100.00
59513;BME280;45330;51.634;5.562;2023-02-04T06:08:33;103384.31;;;4.80;100.00
59513;BME280;45330;51.634;5.562;2023-02-04T06:10:58;103393.38;;;4.74;100.00
59513;BME280;45330;51.634;5.562;2023-02-04T06:13:24;103386.47;;;4.73;100.00
59513;BME280;45330;51.634;5.562;2023-02-04T06:15:49;103398.28;;;4.69;100.00
59513;BME280;45330;51.634;5.562;2023-02-04T06:18:14;103392.22;;;4.69;100.00
59513;BME280;45330;51.634;5.562;2023-02-04T06:20:40;103413.47;;;4.79;100.00
59513;BME280;45330;51.634;5.562;2023-02-04T06:23:05;103421.34;;;4.81;100.00
59513;BME280;45330;51.634;5.562;2023-02-04T06:25:30;103423.72;;;4.78;100.00
59513;BME280;45330;51.634;5.562;2023-02-04T06:27:56;103423.91;;;4.81;100.00
59513;BME280;45330;51.634;5.562;2023-02-04T06:30:21;103430.06;;;4.83;100.00
59513;BME280;45330;51.634;5.562;2023-02-04T06:32:47;103435.13;;;4.81;100.00
59513;BME280;45330;51.634;5.562;2023-02-04T06:35:12;103453.97;;;4.80;100.00
59513;BME280;45330;51.634;5.562;2023-02-04T06:37:39;103444.56;;;4.81;100.00
59513;BME280;45330;51.634;5.562;2023-02-04T06:40:05;103441.16;;;4.82;100.00
59513;BME280;45330;51.634;5.562;2023-02-04T06:42:30;103445.63;;;4.85;100.00
59513;BME280;45330;51.634;5.562;2023-02-04T06:44:56;103436.00;;;4.82;100.00
59513;BME280;45330;51.634;5.562;2023-02-04T06:47:21;103441.34;;;4.85;100.00
59513;BME280;45330;51.634;5.562;2023-02-04T06:49:46;103435.38;;;4.71;100.00
59513;BME280;45330;51.634;5.562;2023-02-04T06:52:12;103461.00;;;4.83;100.00
59513;BME280;45330;51.634;5.562;2023-02-04T06:54:37;103455.75;;;4.81;100.00
59513;BME280;45330;51.634;5.562;2023-02-04T06:57:03;103443.00;;;4.70;100.00
59513;BME280;45330;51.634;5.562;2023-02-04T06:59:36;103467.88;;;4.83;100.00
59513;BME280;45330;51.634;5.562;2023-02-04T07:02:03;103463.59;;;4.83;100.00
59513;BME280;45330;51.634;5.562;2023-02-04T07:04:28;103470.53;;;4.84;100.00
59513;BME280;45330;51.634;5.562;2023-02-04T07:06:54;103461.72;;;4.80;100.00
59513;BME280;45330;51.634;5.562;2023-02-04T07:09:20;103474.09;;;4.86;100.00
59513;BME280;45330;51.634;5.562;2023-02-04T07:11:45;103448.38;;;4.73;100.00
59513;BME280;45330;51.634;5.562;2023-02-04T07:14:10;103474.09;;;4.86;100.00
59513;BME280;45330;51.634;5.562;2023-02-04T07:16:36;103472.28;;;4.85;100.00
59513;BME280;45330;51.634;5.562;2023-02-04T07:19:02;103476.84;;;4.89;100.00
59513;BME280;45330;51.634;5.562;2023-02-04T07:21:28;103478.63;;;4.90;100.00
59513;BME280;45330;51.634;5.562;2023-02-04T07:23:53;103455.41;;;4.75;100.00
59513;BME280;45330;51.634;5.562;2023-02-04T07:26:19;103482.38;;;4.95;100.00
59513;BME280;45330;51.634;5.562;2023-02-04T07:28:44;103473.13;;;4.84;100.00
59513;BME280;45330;51.634;5.562;2023-02-04T07:31:10;103493.69;;;4.97;100.00
59513;BME280;45330;51.634;5.562;2023-02-04T07:33:35;103504.09;;;4.99;100.00
59513;BME280;45330;51.634;5.562;2023-02-04T07:36:01;103495.63;;;5.02;100.00
59513;BME280;45330;51.634;5.562;2023-02-04T07:38:26;103482.38;;;4.95;100.00
59513;BME280;45330;51.634;5.562;2023-02-04T07:40:52;103507.22;;;5.08;100.00
59513;BME280;45330;51.634;5.562;2023-02-04T07:43:17;103486.22;;;5.02;100.00
59513;BME280;45330;51.634;5.562;2023-02-04T07:45:42;103504.22;;;5.15;100.00
59513;BME280;45330;51.634;5.562;2023-02-04T07:48:08;103489.78;;;5.04;100.00
59513;BME280;45330;51.634;5.562;2023-02-04T07:50:35;103510.38;;;5.18;100.00
59513;BME280;45330;51.634;5.562;2023-02-04T07:53:00;103509.53;;;5.19;100.00
59513;BME280;45330;51.634;5.562;2023-02-04T07:55:26;103519.16;;;5.21;100.00
59513;BME280;45330;51.634;5.562;2023-02-04T07:57:52;103525.41;;;5.25;100.00
59513;BME280;45330;51.634;5.562;2023-02-04T08:00:17;103528.25;;;5.29;100.00
59513;BME280;45330;51.634;5.562;2023-02-04T08:02:43;103515.53;;;5.32;100.00
59513;BME280;45330;51.634;5.562;2023-02-04T08:05:09;103526.25;;;5.39;100.00
59513;BME280;45330;51.634;5.562;2023-02-04T08:07:34;103516.69;;;5.38;100.00
59513;BME280;45330;51.634;5.562;2023-02-04T08:10:00;103530.34;;;5.50;100.00
59513;BME280;45330;51.634;5.562;2023-02-04T08:12:25;103531.47;;;5.55;100.00
59513;BME280;45330;51.634;5.562;2023-02-04T08:14:50;103532.47;;;5.57;100.00
59513;BME280;45330;51.634;5.562;2023-02-04T08:17:16;103518.38;;;5.52;100.00
59513;BME280;45330;51.634;5.562;2023-02-04T08:19:41;103534.69;;;5.66;100.00
59513;BME280;45330;51.634;5.562;2023-02-04T08:22:06;103546.28;;;5.73;100.00
59513;BME280;45330;51.634;5.562;2023-02-04T08:24:32;103548.31;;;5.78;100.00
59513;BME280;45330;51.634;5.562;2023-02-04T08:26:57;103540.03;;;5.84;100.00
59513;BME280;45330;51.634;5.562;2023-02-04T08:29:23;103517.22;;;5.77;100.00
59513;BME280;45330;51.634;5.562;2023-02-04T08:31:50;103533.41;;;5.89;100.00
59513;BME280;45330;51.634;5.562;2023-02-04T08:34:15;103546.09;;;5.99;100.00
59513;BME280;45330;51.634;5.562;2023-02-04T08:36:41;103514.34;;;5.87;100.00
59513;BME280;45330;51.634;5.562;2023-02-04T08:39:06;103521.38;;;5.90;100.00
59513;BME280;45330;51.634;5.562;2023-02-04T08:41:31;103549.09;;;6.07;100.00
59513;BME280;45330;51.634;5.562;2023-02-04T08:43:57;103530.03;;;6.05;100.00
59513;BME280;45330;51.634;5.562;2023-02-04T08:46:23;103540.16;;;6.17;100.00
59513;BME280;45330;51.634;5.562;2023-02-04T08:48:48;103555.19;;;6.24;100.00
59513;BME280;45330;51.634;5.562;2023-02-04T08:51:14;103560.81;;;6.32;100.00
59513;BME280;45330;51.634;5.562;2023-02-04T08:53:39;103538.00;;;6.25;100.00
59513;BME280;45330;51.634;5.562;2023-02-04T08:56:06;103553.69;;;6.28;100.00
59513;BME280;45330;51.634;5.562;2023-02-04T08:58:31;103551.28;;;6.31;100.00
59513;BME280;45330;51.634;5.562;2023-02-04T09:00:57;103536.75;;;6.33;100.00
59513;BME280;45330;51.634;5.562;2023-02-04T09:03:22;103544.75;;;6.38;100.00
59513;BME280;45330;51.634;5.562;2023-02-04T09:05:48;103572.09;;;6.49;100.00
59513;BME280;45330;51.634;5.562;2023-02-04T09:08:13;103565.47;;;6.54;100.00
59513;BME280;45330;51.634;5.562;2023-02-04T09:10:40;103582.13;;;6.59;100.00
59513;BME280;45330;51.634;5.562;2023-02-04T09:13:05;103579.97;;;6.67;100.00
59513;BME280;45330;51.634;5.562;2023-02-04T09:15:33;103558.28;;;6.65;100.00
59513;BME280;45330;51.634;5.562;2023-02-04T09:17:58;103556.91;;;6.72;100.00
59513;BME280;45330;51.634;5.562;2023-02-04T09:20:35;103584.25;;;6.83;100.00
59513;BME280;45330;51.634;5.562;2023-02-04T09:23:01;103578.22;;;6.82;100.00
59513;BME280;45330;51.634;5.562;2023-02-04T09:25:26;103567.78;;;6.81;100.00
59513;BME280;45330;51.634;5.562;2023-02-04T09:27:52;103567.03;;;6.83;100.00
59513;BME280;45330;51.634;5.562;2023-02-04T09:30:17;103573.56;;;6.93;100.00
59513;BME280;45330;51.634;5.562;2023-02-04T09:32:43;103576.97;;;7.09;100.00
59513;BME280;45330;51.634;5.562;2023-02-04T09:35:08;103584.66;;;7.24;100.00
59513;BME280;45330;51.634;5.562;2023-02-04T09:37:34;103579.56;;;7.25;100.00
59513;BME280;45330;51.634;5.562;2023-02-04T09:39:59;103590.78;;;7.42;100.00
59513;BME280;45330;51.634;5.562;2023-02-04T09:42:25;103594.44;;;7.46;100.00
59513;BME280;45330;51.634;5.562;2023-02-04T09:44:51;103592.88;;;7.49;100.00
59513;BME280;45330;51.634;5.562;2023-02-04T09:47:20;103575.66;;;7.50;100.00
59513;BME280;45330;51.634;5.562;2023-02-04T09:49:46;103581.94;;;7.55;100.00
59513;BME280;45330;51.634;5.562;2023-02-04T09:52:13;103581.78;;;7.52;100.00
59513;BME280;45330;51.634;5.562;2023-02-04T09:54:40;103592.72;;;7.63;100.00
59513;BME280;45330;51.634;5.562;2023-02-04T09:57:17;103597.88;;;7.63;100.00
59513;BME280;45330;51.634;5.562;2023-02-04T09:59:44;103602.09;;;7.61;100.00
59513;BME280;45330;51.634;5.562;2023-02-04T10:02:20;103601.69;;;7.69;100.00
59513;BME280;45330;51.634;5.562;2023-02-04T10:04:47;103601.97;;;7.76;100.00
59513;BME280;45330;51.634;5.562;2023-02-04T10:07:13;103579.31;;;7.71;100.00
59513;BME280;45330;51.634;5.562;2023-02-04T10:09:42;103596.81;;;7.76;100.00
59513;BME280;45330;51.634;5.562;2023-02-04T10:12:07;103606.88;;;7.69;100.00
59513;BME280;45330;51.634;5.562;2023-02-04T10:14:32;103600.47;;;7.63;100.00
59513;BME280;45330;51.634;5.562;2023-02-04T10:16:59;103603.00;;;7.61;100.00
59513;BME280;45330;51.634;5.562;2023-02-04T10:19:27;103603.66;;;7.57;100.00
59513;BME280;45330;51.634;5.562;2023-02-04T10:21:54;103606.47;;;7.62;100.00
59513;BME280;45330;51.634;5.562;2023-02-04T10:24:21;103584.31;;;7.50;100.00
59513;BME280;45330;51.634;5.562;2023-02-04T10:26:50;103610.50;;;7.56;100.00
59513;BME280;45330;51.634;5.562;2023-02-04T10:29:18;103608.34;;;7.48;100.00
59513;BME280;45330;51.634;5.562;2023-02-04T10:31:46;103610.63;;;7.42;100.00
59513;BME280;45330;51.634;5.562;2023-02-04T10:36:47;103601.50;;;7.48;100.00
59513;BME280;45330;51.634;5.562;2023-02-04T10:39:19;103608.34;;;7.64;100.00
59513;BME280;45330;51.634;5.562;2023-02-04T10:41:55;103596.03;;;7.60;100.00
59513;BME280;45330;51.634;5.562;2023-02-04T10:44:47;103619.19;;;7.73;100.00
59513;BME280;45330;51.634;5.562;2023-02-04T10:47:21;103613.31;;;7.78;100.00
59513;BME280;45330;51.634;5.562;2023-02-04T10:49:54;103598.44;;;7.73;100.00
59513;BME280;45330;51.634;5.562;2023-02-04T10:52:21;103602.72;;;7.73;100.00
59513;BME280;45330;51.634;5.562;2023-02-04T10:54:48;103610.81;;;7.79;100.00
59513;BME280;45330;51.634;5.562;2023-02-04T10:57:25;103606.88;;;7.87;100.00
59513;BME280;45330;51.634;5.562;2023-02-04T10:59:53;103586.44;;;7.76;100.00
59513;BME280;45330;51.634;5.562;2023-02-04T11:05:28;103616.53;;;8.08;100.00
59513;BME280;45330;51.634;5.562;2023-02-04T11:07:53;103601.59;;;8.20;100.00
59513;BME280;45330;51.634;5.562;2023-02-04T11:10:22;103592.41;;;8.27;100.00
59513;BME280;45330;51.634;5.562;2023-02-04T11:15:45;103609.28;;;8.37;100.00
59513;BME280;45330;51.634;5.562;2023-02-04T11:18:25;103612.69;;;8.36;100.00
59513;BME280;45330;51.634;5.562;2023-02-04T11:20:56;103606.75;;;8.38;100.00
59513;BME280;45330;51.634;5.562;2023-02-04T11:26:01;103603.94;;;8.52;100.00
59513;BME280;45330;51.634;5.562;2023-02-04T11:28:26;103614.91;;;8.64;100.00
59513;BME280;45330;51.634;5.562;2023-02-04T11:30:59;103591.88;;;8.72;100.00
59513;BME280;45330;51.634;5.562;2023-02-04T11:33:36;103602.53;;;8.96;100.00
59513;BME280;45330;51.634;5.562;2023-02-04T11:36:06;103609.91;;;9.06;100.00
59513;BME280;45330;51.634;5.562;2023-02-04T11:38:33;103588.03;;;9.01;100.00
59513;BME280;45330;51.634;5.562;2023-02-04T11:40:59;103609.03;;;9.06;100.00
59513;BME280;45330;51.634;5.562;2023-02-04T11:43:25;103604.38;;;8.99;100.00
59513;BME280;45330;51.634;5.562;2023-02-04T11:46:27;103608.94;;;8.85;100.00
59513;BME280;45330;51.634;5.562;2023-02-04T11:48:55;103587.72;;;8.56;100.00
59513;BME280;45330;51.634;5.562;2023-02-04T11:51:27;103604.47;;;8.63;100.00
59513;BME280;45330;51.634;5.562;2023-02-04T11:53:54;103608.91;;;8.65;100.00
59513;BME280;45330;51.634;5.562;2023-02-04T11:56:20;103605.09;;;8.77;100.00
59513;BME280;45330;51.634;5.562;2023-02-04T11:58:47;103608.41;;;8.92;100.00
59513;BME280;45330;51.634;5.562;2023-02-04T12:01:24;103607.56;;;9.13;100.00
59513;BME280;45330;51.634;5.562;2023-02-04T12:03:56;103608.78;;;9.21;100.00
59513;BME280;45330;51.634;5.562;2023-02-04T12:06:27;103613.94;;;9.19;100.00
59513;BME280;45330;51.634;5.562;2023-02-04T12:09:07;103587.25;;;9.23;100.00
59513;BME280;45330;51.634;5.562;2023-02-04T12:11:34;103607.94;;;9.61;100.00
59513;BME280;45330;51.634;5.562;2023-02-04T12:14:08;103592.16;;;9.77;100.00
59513;BME280;45330;51.634;5.562;2023-02-04T12:16:44;103588.78;;;10.01;100.00
59513;BME280;45330;51.634;5.562;2023-02-04T12:19:09;103588.28;;;10.10;100.00
59513;BME280;45330;51.634;5.562;2023-02-04T12:21:37;103604.72;;;10.32;100.00
59513;BME280;45330;51.634;5.562;2023-02-04T12:24:03;103598.97;;;10.18;100.00
59513;BME280;45330;51.634;5.562;2023-02-04T12:26:28;103612.88;;;9.97;100.00
59513;BME280;45330;51.634;5.562;2023-02-04T12:28:53;103612.34;;;9.83;100.00
59513;BME280;45330;51.634;5.562;2023-02-04T12:31:19;103612.13;;;9.78;100.00
59513;BME280;45330;51.634;5.562;2023-02-04T12:33:44;103609.53;;;9.78;100.00
59513;BME280;45330;51.634;5.562;2023-02-04T12:36:10;103608.78;;;9.81;100.00
59513;BME280;45330;51.634;5.562;2023-02-04T12:38:36;103616.28;;;9.94;100.00
59513;BME280;45330;51.634;5.562;2023-02-04T12:41:01;103612.19;;;10.01;100.00
59513;BME280;45330;51.634;5.562;2023-02-04T12:43:27;103611.38;;;10.02;100.00
59513;BME280;45330;51.634;5.562;2023-02-04T12:45:52;103610.56;;;10.03;100.00
59513;BME280;45330;51.634;5.562;2023-02-04T12:48:17;103597.28;;;9.76;100.00
59513;BME280;45330;51.634;5.562;2023-02-04T12:50:43;103605.47;;;9.64;100.00
59513;BME280;45330;51.634;5.562;2023-02-04T12:53:09;103606.59;;;9.50;100.00
59513;BME280;45330;51.634;5.562;2023-02-04T12:55:35;103607.41;;;9.49;100.00
59513;BME280;45330;51.634;5.562;2023-02-04T12:58:00;103616.19;;;9.51;100.00